Point Hope, AK

9:02 AM AKST on December 06, 2016 (GMT -0900)
Cape Lisburne LRRS | | Change Station

Elev 10 ft 68.88 °N, 166.13 °W | Updated 7 minutes ago

Clear
Clear
12 °F
Feels Like 6 °F
N
4
Wind Variable Wind from SSW

Today
High -- | Low -- °F
--% Chance of Precip.
Yesterday
High -- | Low -- °F
Precip. -- in
Pressure 30.67 in
Visibility 10.0 miles
Clouds Clear
Windchill 6 °F
Dew Point -4 °F
Humidity 48%
Rainfall 0.00 in
Snow Depth Not available.
1:23 PM 2:28 PM
Waxing Crescent, 43% visible
METAR PALU 061755Z 21003KT 10SM CLR M11/M20 A3067 RMK AO2A SLP386 IR11 4/012 52007
Pressure 30.67 in
Visibility 10.0 miles
Clouds Clear
Windchill 6 °F
Dew Point -4 °F
Humidity 48%
Rainfall 0.00 in
Snow Depth Not available.
1:23 PM 2:28 PM
Waxing Crescent, 43% visible
METAR PALU 061755Z 21003KT 10SM CLR M11/M20 A3067 RMK AO2A SLP386 IR11 4/012 52007

10-Day Weather Forecast

Almanac

Astronomy

Dec. 06, 2016 Rise Set
Actual Time
Civil Twilight
Nautical Twilight
Astronomical Twilight
Moon
Length of Visible Light
Length of Day
Tomorrow will be .
, % of the Moon is Illuminated

Today's Extremes

State Highs State Lows

Community

WunderPhotos

Upload Photos

1,955,989 photos uploaded!

WunderBlog® & News

Nearby

Air Quality

  Air Quality AQ Index Pollutant
Not available.

Snow Depth

Station Depth Elevation

Earthquake Activity

City Distance Mag. Time & Date
Minimum magnitude displayed is 2.5.

Coastal Water Temperatures

Place Temperature

Stations

Nearby Weather Stations

Station Location Temp. Windchill Dew Point Humidity Wind Precip. Elev Updated Type
                   

Watches & Warnings

There are currently no watches in effect.